Time;durP1;ratioP1;P1;durP2;ratioP2;P2;SDS_P1;SDS_P2;PMS_P1;PMS_P2;Temp;Humidity;BMP_temperature;BMP_pressure;BME280_temperature;BME280_humidity;BME280_pressure;Samples;Min_cycle;Max_cycle;Signal;HPM_P1;HPM_P2
2023/11/16 00:01:27;;;;;;;;;;;;;;;7.26;100.00;100254.84;5068378;28;19925;-86
2023/11/16 00:03:55;;;;;;;;;;;;;;;7.24;100.00;100243.47;5070270;28;19925;-85
2023/11/16 00:06:28;;;;;;;;;;;;;;;7.20;100.00;100250.50;5056694;28;19925;-85
2023/11/16 00:08:56;;;;;;;;;;;;;;;7.23;100.00;100244.56;5075421;28;19931;-85
2023/11/16 00:11:24;;;;;;;;;;;;;;;7.22;100.00;100242.13;5063323;28;20027;-85
2023/11/16 00:13:52;;;;;;;;;;;;;;;7.24;100.00;100240.78;5068769;28;19924;-85
2023/11/16 00:16:28;;;;;;;;;;;;;;;7.22;100.00;100252.94;5069999;28;19925;-86
2023/11/16 00:18:57;;;;;;;;;;;;;;;7.21;100.00;100241.31;5065104;28;19932;-86
2023/11/16 00:21:26;;;;;;;;;;;;;;;7.20;100.00;100244.28;5072046;28;19932;-83
2023/11/16 00:23:54;;;;;;;;;;;;;;;7.21;100.00;100249.44;5066643;28;19925;-84
2023/11/16 00:26:27;;;;;;;;;;;;;;;7.22;100.00;100245.66;5064548;28;19932;-84
2023/11/16 00:29:01;;;;;;;;;;;;;;;7.25;100.00;100233.44;5072371;28;19929;-83
2023/11/16 00:31:30;;;;;;;;;;;;;;;7.24;100.00;100231.84;5064756;28;20304;-83
2023/11/16 00:33:58;;;;;;;;;;;;;;;7.20;100.00;100238.88;5073997;28;19932;-83
2023/11/16 00:36:27;;;;;;;;;;;;;;;7.20;100.00;100239.69;5059304;28;19925;-85
2023/11/16 00:38:58;;;;;;;;;;;;;;;7.18;100.00;100220.22;5068813;28;19931;-82
2023/11/16 00:41:31;;;;;;;;;;;;;;;7.15;100.00;100226.97;5069944;28;19929;-84
2023/11/16 00:44:01;;;;;;;;;;;;;;;7.08;100.00;100212.84;5064323;28;19928;-83
2023/11/16 00:46:36;;;;;;;;;;;;;;;7.11;100.00;100214.22;5069572;28;20384;-84
2023/11/16 00:49:04;;;;;;;;;;;;;;;7.14;100.00;100213.72;5070269;28;19925;-85
2023/11/16 00:51:37;;;;;;;;;;;;;;;7.13;100.00;100210.16;5064600;28;20380;-84
2023/11/16 00:54:11;;;;;;;;;;;;;;;7.10;100.00;100208.00;5068219;28;19924;-85
2023/11/16 00:56:39;;;;;;;;;;;;;;;7.09;100.00;100192.03;5066842;28;19924;-85
2023/11/16 00:59:12;;;;;;;;;;;;;;;7.11;100.00;100193.41;5062305;28;19925;-84
2023/11/16 01:01:46;;;;;;;;;;;;;;;7.06;100.00;100200.72;5068282;28;19935;-85
2023/11/16 01:04:14;;;;;;;;;;;;;;;7.08;100.00;100196.63;5051571;28;20378;-85
2023/11/16 01:06:45;;;;;;;;;;;;;;;7.09;100.00;100190.13;5067108;28;19925;-84
2023/11/16 01:09:19;;;;;;;;;;;;;;;7.04;100.00;100181.22;5064957;28;19931;-85
2023/11/16 01:11:47;;;;;;;;;;;;;;;7.03;100.00;100184.97;5065815;28;19924;-84
2023/11/16 01:14:22;;;;;;;;;;;;;;;7.06;100.00;100189.88;5068060;28;19925;-85
2023/11/16 01:17:03;;;;;;;;;;;;;;;7.06;100.00;100189.88;5079905;28;20309;-84
2023/11/16 01:19:32;;;;;;;;;;;;;;;7.04;100.00;100182.00;5065400;28;19928;-84
2023/11/16 01:22:07;;;;;;;;;;;;;;;7.07;100.00;100184.19;5071503;28;19924;-83
2023/11/16 01:24:35;;;;;;;;;;;;;;;7.05;100.00;100185.53;5061119;28;19924;-84
2023/11/16 01:27:15;;;;;;;;;;;;;;;7.07;100.00;100183.38;5069706;28;19925;-85
2023/11/16 01:29:43;;;;;;;;;;;;;;;7.06;100.00;100182.56;5066387;28;19924;-85
2023/11/16 01:32:18;;;;;;;;;;;;;;;7.10;100.00;100164.72;5071097;28;19932;-84
2023/11/16 01:34:46;;;;;;;;;;;;;;;7.11;100.00;100158.22;5067242;28;20407;-84
2023/11/16 01:37:19;;;;;;;;;;;;;;;7.13;100.00;100155.25;5067525;28;19924;-84
2023/11/16 01:39:46;;;;;;;;;;;;;;;7.13;100.00;100157.97;5070542;28;19932;-85
2023/11/16 01:42:19;;;;;;;;;;;;;;;7.19;100.00;100161.47;5065401;28;19925;-83
2023/11/16 01:44:47;;;;;;;;;;;;;;;7.20;100.00;100160.41;5062957;28;19924;-84
2023/11/16 01:47:23;;;;;;;;;;;;;;;7.22;100.00;100164.47;5054182;28;19932;-84
2023/11/16 01:49:56;;;;;;;;;;;;;;;7.25;100.00;100154.97;5081897;28;19924;-83
2023/11/16 01:52:25;;;;;;;;;;;;;;;7.20;100.00;100146.88;5071394;28;19928;-84
2023/11/16 01:54:58;;;;;;;;;;;;;;;7.23;100.00;100149.81;5071920;28;19924;-85
2023/11/16 01:57:26;;;;;;;;;;;;;;;7.21;100.00;100151.19;5071266;28;19948;-85
2023/11/16 01:59:59;;;;;;;;;;;;;;;7.21;100.00;100145.75;5070690;28;19925;-86
2023/11/16 02:02:43;;;;;;;;;;;;;;;7.19;100.00;100146.03;5072404;28;19924;-85
2023/11/16 02:05:16;;;;;;;;;;;;;;;7.21;100.00;100145.75;5074391;28;19932;-84
2023/11/16 02:07:44;;;;;;;;;;;;;;;7.20;100.00;100142.25;5073996;28;19932;-85
2023/11/16 02:10:17;;;;;;;;;;;;;;;7.21;100.00;100138.47;5067403;28;19925;-85
2023/11/16 02:12:51;;;;;;;;;;;;;;;7.24;100.00;100137.13;5072415;28;19925;-85
2023/11/16 02:15:21;;;;;;;;;;;;;;;7.26;100.00;100132.25;5055518;28;20293;-85
2023/11/16 02:17:51;;;;;;;;;;;;;;;7.31;100.00;100132.25;5071696;28;19924;-84
2023/11/16 02:20:21;;;;;;;;;;;;;;;7.26;100.00;100127.63;5072512;28;19975;-83
2023/11/16 02:22:54;;;;;;;;;;;;;;;7.28;100.00;100117.34;5087462;28;19928;-85
2023/11/16 02:25:26;;;;;;;;;;;;;;;7.30;100.00;100122.50;5067604;28;19924;-85
2023/11/16 02:27:59;;;;;;;;;;;;;;;7.33;100.00;100124.66;5073176;28;19931;-85
2023/11/16 02:30:27;;;;;;;;;;;;;;;7.30;100.00;100108.97;5066498;28;20571;-84
2023/11/16 02:33:00;;;;;;;;;;;;;;;7.27;100.00;100096.78;5089465;28;19925;-83
2023/11/16 02:35:33;;;;;;;;;;;;;;;7.31;100.00;100110.59;5086286;28;19925;-86
2023/11/16 02:38:06;;;;;;;;;;;;;;;7.30;100.00;100117.06;5073601;28;19924;-85
2023/11/16 02:40:36;;;;;;;;;;;;;;;7.36;100.00;100121.41;5074668;28;19924;-83
2023/11/16 02:43:05;;;;;;;;;;;;;;;7.32;100.00;100114.94;5073107;28;19924;-86
2023/11/16 02:45:34;;;;;;;;;;;;;;;7.30;100.00;100104.34;5068750;28;20520;-85
2023/11/16 02:48:03;;;;;;;;;;;;;;;7.31;100.00;100107.88;5065447;28;19925;-86
2023/11/16 02:50:32;;;;;;;;;;;;;;;7.27;100.00;100107.59;5067985;28;19925;-87
2023/11/16 02:53:00;;;;;;;;;;;;;;;7.26;100.00;100102.47;5064975;28;19925;-86
2023/11/16 02:55:29;;;;;;;;;;;;;;;7.25;100.00;100100.84;5069748;28;19939;-85
2023/11/16 02:57:58;;;;;;;;;;;;;;;7.23;100.00;100105.72;5064017;28;19932;-85
2023/11/16 03:00:32;;;;;;;;;;;;;;;7.20;100.00;100098.16;5068625;28;19925;-85
2023/11/16 03:03:06;;;;;;;;;;;;;;;7.18;100.00;100095.72;5082896;28;19924;-85
2023/11/16 03:05:34;;;;;;;;;;;;;;;7.15;100.00;100097.06;5072911;28;19929;-84
2023/11/16 03:08:07;;;;;;;;;;;;;;;7.20;100.00;100090.03;5082011;28;19926;-86
2023/11/16 03:10:37;;;;;;;;;;;;;;;7.19;100.00;100097.31;5066924;28;19932;-85
2023/11/16 03:13:07;;;;;;;;;;;;;;;7.17;100.00;100098.69;5060723;28;19925;-83
2023/11/16 03:15:34;;;;;;;;;;;;;;;7.16;100.00;100095.16;5072589;28;19925;-85
2023/11/16 03:18:03;;;;;;;;;;;;;;;7.21;100.00;100097.88;5066948;28;19925;-83
2023/11/16 03:20:35;;;;;;;;;;;;;;;7.15;100.00;100093.53;5085808;28;19932;-85
2023/11/16 03:23:03;;;;;;;;;;;;;;;7.24;100.00;100101.94;5060424;28;19932;-85
2023/11/16 03:25:36;;;;;;;;;;;;;;;7.17;100.00;100095.97;5062795;28;19924;-85
2023/11/16 03:28:04;;;;;;;;;;;;;;;7.16;100.00;100100.56;5075925;28;19928;-86
2023/11/16 03:30:34;;;;;;;;;;;;;;;7.13;100.00;100099.22;5068159;28;19931;-86
2023/11/16 03:33:08;;;;;;;;;;;;;;;7.15;100.00;100101.66;5059952;28;19925;-85
2023/11/16 03:35:36;;;;;;;;;;;;;;;7.13;100.00;100104.63;5064875;28;20297;-84
2023/11/16 03:38:09;;;;;;;;;;;;;;;7.08;100.00;100101.91;5071148;28;19939;-85
2023/11/16 03:40:42;;;;;;;;;;;;;;;7.11;100.00;100097.88;5067696;28;19935;-85
2023/11/16 03:43:11;;;;;;;;;;;;;;;7.11;100.00;100108.69;5068505;28;19925;-85
2023/11/16 03:45:41;;;;;;;;;;;;;;;7.11;100.00;100093.28;5070052;28;20877;-86
2023/11/16 03:48:14;;;;;;;;;;;;;;;7.10;100.00;100107.88;5069484;28;19929;-86
2023/11/16 03:50:46;;;;;;;;;;;;;;;7.11;100.00;100104.09;5072876;28;19924;-85
2023/11/16 03:53:19;;;;;;;;;;;;;;;7.05;100.00;100102.47;5058260;28;19931;-84
2023/11/16 03:55:47;;;;;;;;;;;;;;;7.06;100.00;100119.53;5061994;28;19925;-85
2023/11/16 03:58:21;;;;;;;;;;;;;;;7.06;100.00;100114.13;5067978;28;20292;-85
2023/11/16 04:00:50;;;;;;;;;;;;;;;7.06;100.00;100117.63;5071191;28;19925;-86
2023/11/16 04:03:18;;;;;;;;;;;;;;;7.11;100.00;100108.69;5062218;28;19932;-85
2023/11/16 04:05:51;;;;;;;;;;;;;;;7.05;100.00;100107.09;5059503;28;19948;-86
2023/11/16 04:08:19;;;;;;;;;;;;;;;6.98;100.00;100110.84;5066921;28;19931;-86
2023/11/16 04:10:48;;;;;;;;;;;;;;;7.01;100.00;100116.81;5069759;28;19925;-86
2023/11/16 04:13:18;;;;;;;;;;;;;;;6.98;100.00;100115.47;5065551;28;20388;-85
2023/11/16 04:15:53;;;;;;;;;;;;;;;6.93;100.00;100121.69;5066248;28;19932;-86
2023/11/16 04:18:26;;;;;;;;;;;;;;;6.82;100.00;100122.72;5066596;28;19925;-86
2023/11/16 04:20:59;;;;;;;;;;;;;;;6.75;100.00;100131.13;5072195;28;19931;-84
2023/11/16 04:23:32;;;;;;;;;;;;;;;6.64;100.00;100151.09;5067022;28;19928;-86
2023/11/16 04:26:08;;;;;;;;;;;;;;;6.44;100.00;100143.75;5065140;28;19928;-85
2023/11/16 04:28:36;;;;;;;;;;;;;;;6.41;100.00;100157.81;5068395;28;19936;-86
2023/11/16 04:31:06;;;;;;;;;;;;;;;6.31;100.00;100150.44;5069960;28;19925;-84
2023/11/16 04:33:35;;;;;;;;;;;;;;;6.22;100.00;100155.56;5069081;28;19925;-85
2023/11/16 04:36:05;;;;;;;;;;;;;;;6.05;100.00;100163.84;5066983;28;19935;-86
2023/11/16 04:38:34;;;;;;;;;;;;;;;6.01;100.00;100157.34;5067739;28;19924;-85
2023/11/16 04:41:02;;;;;;;;;;;;;;;5.87;100.00;100162.38;5071124;28;19925;-85
2023/11/16 04:43:33;;;;;;;;;;;;;;;5.78;100.00;100158.53;5068266;28;19924;-84
2023/11/16 04:46:11;;;;;;;;;;;;;;;5.70;100.00;100165.22;5064701;28;19935;-86
2023/11/16 04:48:44;;;;;;;;;;;;;;;5.70;100.00;100180.63;5061830;28;19924;-86
2023/11/16 04:51:19;;;;;;;;;;;;;;;5.59;100.00;100185.94;5067095;28;19928;-86
2023/11/16 04:53:47;;;;;;;;;;;;;;;5.56;100.00;100188.34;5071163;28;19936;-85
2023/11/16 04:56:15;;;;;;;;;;;;;;;5.41;100.00;100195.25;5064144;28;19928;-85
2023/11/16 04:58:48;;;;;;;;;;;;;;;5.42;100.00;100185.28;5071246;28;19932;-86
2023/11/16 05:01:23;;;;;;;;;;;;;;;5.37;100.00;100179.81;5067654;28;19929;-86
2023/11/16 05:03:51;;;;;;;;;;;;;;;5.28;100.00;100183.00;5067908;28;20411;-85
2023/11/16 05:06:19;;;;;;;;;;;;;;;5.19;100.00;100187.25;5068337;28;19925;-84
2023/11/16 05:08:47;;;;;;;;;;;;;;;5.21;100.00;100195.88;5069590;28;19925;-85
2023/11/16 05:11:21;;;;;;;;;;;;;;;5.15;100.00;100196.09;5070176;28;19924;-86
2023/11/16 05:13:49;;;;;;;;;;;;;;;5.13;100.00;100199.03;5069941;28;19924;-85
2023/11/16 05:16:17;;;;;;;;;;;;;;;5.07;100.00;100208.97;5062843;28;19925;-87
2023/11/16 05:18:46;;;;;;;;;;;;;;;5.03;100.00;100207.06;5058696;28;19929;-86
2023/11/16 05:21:14;;;;;;;;;;;;;;;5.07;100.00;100218.97;5053543;28;19925;-85
2023/11/16 05:23:47;;;;;;;;;;;;;;;5.05;100.00;100213.78;5058960;28;19925;-86
2023/11/16 05:26:20;;;;;;;;;;;;;;;5.05;100.00;100213.00;5073911;28;19931;-84
2023/11/16 05:28:48;;;;;;;;;;;;;;;5.04;100.00;100224.84;5071185;28;19952;-87
2023/11/16 05:31:21;;;;;;;;;;;;;;;5.05;100.00;100218.38;5065215;28;20312;-85
2023/11/16 05:33:55;;;;;;;;;;;;;;;5.00;100.00;100218.31;5058377;28;20381;-85
2023/11/16 05:36:29;;;;;;;;;;;;;;;4.96;100.00;100226.13;5067050;28;19929;-87
2023/11/16 05:39:03;;;;;;;;;;;;;;;4.90;100.00;100230.66;5068840;28;19925;-87
2023/11/16 05:41:36;;;;;;;;;;;;;;;4.91;100.00;100234.16;5071212;28;19936;-86
2023/11/16 05:44:09;;;;;;;;;;;;;;;4.88;100.00;100229.28;5064818;28;19925;-86
2023/11/16 05:46:37;;;;;;;;;;;;;;;4.88;100.00;100229.28;5066875;28;19932;-86
2023/11/16 05:49:11;;;;;;;;;;;;;;;4.85;100.00;100241.38;5068969;28;19929;-86
2023/11/16 05:51:44;;;;;;;;;;;;;;;4.82;100.00;100239.19;5080112;28;19925;-86
2023/11/16 05:54:14;;;;;;;;;;;;;;;4.87;100.00;100246.50;5066918;28;19928;-87
2023/11/16 05:56:44;;;;;;;;;;;;;;;4.86;100.00;100247.56;5070323;28;19931;-86
2023/11/16 05:59:13;;;;;;;;;;;;;;;4.81;100.00;100255.63;5068321;28;19924;-87
2023/11/16 06:01:44;;;;;;;;;;;;;;;4.71;100.00;100253.59;5061532;28;20595;-85
2023/11/16 06:04:19;;;;;;;;;;;;;;;4.77;100.00;100266.88;5065466;28;20420;-84
2023/11/16 06:06:53;;;;;;;;;;;;;;;4.80;100.00;100265.56;5065883;28;19928;-86
2023/11/16 06:09:21;;;;;;;;;;;;;;;4.70;100.00;100279.75;5075159;28;19952;-87
2023/11/16 06:11:50;;;;;;;;;;;;;;;4.70;100.00;100282.44;5061176;28;20377;-85
2023/11/16 06:14:24;;;;;;;;;;;;;;;4.64;100.00;100282.63;5067661;28;19929;-85
2023/11/16 06:16:57;;;;;;;;;;;;;;;4.63;100.00;100291.75;5064015;28;19935;-86
2023/11/16 06:19:32;;;;;;;;;;;;;;;4.48;100.00;100289.69;5067749;28;19931;-85
2023/11/16 06:22:00;;;;;;;;;;;;;;;4.48;100.00;100287.81;5081668;28;19932;-85
2023/11/16 06:24:33;;;;;;;;;;;;;;;4.35;100.00;100283.59;5077217;28;19931;-86
2023/11/16 06:27:00;;;;;;;;;;;;;;;4.32;100.00;100294.84;5061824;28;19939;-84
2023/11/16 06:29:33;;;;;;;;;;;;;;;4.25;100.00;100286.13;5067213;28;19925;-86
2023/11/16 06:32:05;;;;;;;;;;;;;;;4.24;100.00;100298.00;5065187;28;20500;-85
2023/11/16 06:34:39;;;;;;;;;;;;;;;4.25;100.00;100307.69;5072976;28;19928;-85
2023/11/16 06:37:08;;;;;;;;;;;;;;;4.20;100.00;100305.75;5081758;28;19928;-85
2023/11/16 06:39:36;;;;;;;;;;;;;;;4.24;100.00;100308.78;5070857;28;19932;-85
2023/11/16 06:42:05;;;;;;;;;;;;;;;4.23;100.00;100316.00;5068595;28;20400;-85
2023/11/16 06:44:33;;;;;;;;;;;;;;;4.16;100.00;100326.16;5071996;28;20284;-86
2023/11/16 06:47:02;;;;;;;;;;;;;;;4.11;100.00;100330.66;5071665;28;19924;-85
2023/11/16 06:49:32;;;;;;;;;;;;;;;3.98;100.00;100342.53;5074339;28;19947;-85
2023/11/16 06:52:06;;;;;;;;;;;;;;;3.93;100.00;100340.59;5068252;28;19924;-84
2023/11/16 06:54:34;;;;;;;;;;;;;;;3.79;100.00;100353.53;5086360;28;19931;-88
2023/11/16 06:57:02;;;;;;;;;;;;;;;3.86;100.00;100346.13;5066779;28;19924;-84
2023/11/16 06:59:30;;;;;;;;;;;;;;;3.77;100.00;100357.53;5065766;28;20392;-85
2023/11/16 07:01:58;;;;;;;;;;;;;;;3.68;100.00;100357.94;5065141;28;20288;-86
2023/11/16 07:04:26;;;;;;;;;;;;;;;3.77;100.00;100362.91;5070418;28;19932;-85
2023/11/16 07:06:55;;;;;;;;;;;;;;;3.74;100.00;100366.91;5060650;28;19928;-85
2023/11/16 07:09:27;;;;;;;;;;;;;;;3.69;100.00;100373.03;5063282;28;20269;-86
2023/11/16 07:11:54;;;;;;;;;;;;;;;3.65;100.00;100379.94;5065311;28;19925;-86
2023/11/16 07:14:29;;;;;;;;;;;;;;;3.64;100.00;100375.59;5055503;28;19929;-86
2023/11/16 07:17:01;;;;;;;;;;;;;;;3.63;100.00;100373.97;5062014;28;19924;-85
2023/11/16 07:19:29;;;;;;;;;;;;;;;3.57;100.00;100381.13;5067141;28;19932;-86
2023/11/16 07:21:58;;;;;;;;;;;;;;;3.52;100.00;100381.06;5070595;28;19924;-87
2023/11/16 07:24:27;;;;;;;;;;;;;;;3.54;100.00;100391.56;5074147;28;19925;-86
2023/11/16 07:27:02;;;;;;;;;;;;;;;3.53;100.00;100393.44;5068074;28;19932;-84
2023/11/16 07:29:35;;;;;;;;;;;;;;;3.56;100.00;100389.44;5066649;28;20525;-86
2023/11/16 07:32:09;;;;;;;;;;;;;;;3.55;100.00;100401.28;5059295;28;19928;-86
2023/11/16 07:34:42;;;;;;;;;;;;;;;3.55;100.00;100406.66;5069131;28;19931;-85
2023/11/16 07:37:15;;;;;;;;;;;;;;;3.45;100.00;100415.34;5070586;28;19925;-87
2023/11/16 07:39:45;;;;;;;;;;;;;;;3.56;100.00;100419.03;5062951;28;19924;-84
2023/11/16 07:42:13;;;;;;;;;;;;;;;3.45;100.00;100418.03;5069209;28;19933;-86
2023/11/16 07:44:46;;;;;;;;;;;;;;;3.46;100.00;100422.34;5059647;28;19932;-87
2023/11/16 07:47:14;;;;;;;;;;;;;;;3.42;100.00;100423.88;5061960;28;19931;-87
2023/11/16 07:49:42;;;;;;;;;;;;;;;3.47;100.00;100425.88;5080630;28;19924;-87
2023/11/16 07:52:10;;;;;;;;;;;;;;;3.54;100.00;100432.75;5069702;28;20293;-87
2023/11/16 07:54:45;;;;;;;;;;;;;;;3.47;100.00;100439.34;5064378;28;20193;-87
2023/11/16 07:57:22;;;;;;;;;;;;;;;3.40;100.00;100444.84;5080943;28;19925;-85
2023/11/16 07:59:59;;;;;;;;;;;;;;;3.47;100.00;100447.41;5063857;28;19932;-85
2023/11/16 08:03:41;;;;;;;;;;;;;;;3.39;100.00;100445.91;5060520;28;19929;-88
2023/11/16 08:13:10;;;;;;;;;;;;;;;3.50;100.00;100452.31;5066218;28;20337;-86
2023/11/16 08:15:43;;;;;;;;;;;;;;;3.57;100.00;100459.16;5047325;28;19924;-86
2023/11/16 08:18:16;;;;;;;;;;;;;;;3.56;100.00;100465.63;5063915;28;19928;-90
2023/11/16 08:20:49;;;;;;;;;;;;;;;3.57;100.00;100459.16;5046908;28;19940;-89
2023/11/16 08:23:18;;;;;;;;;;;;;;;3.55;100.00;100452.41;5061552;28;19948;-90
2023/11/16 08:25:47;;;;;;;;;;;;;;;3.58;100.00;100458.13;5047987;28;19929;-87
2023/11/16 08:28:19;;;;;;;;;;;;;;;3.53;100.00;100468.78;5043856;28;19925;-88
2023/11/16 08:30:48;;;;;;;;;;;;;;;3.52;100.00;100464.47;5060155;28;19924;-87
2023/11/16 08:33:16;;;;;;;;;;;;;;;3.62;100.00;100471.09;5058627;28;19924;-88
2023/11/16 08:35:47;;;;;;;;;;;;;;;3.64;100.00;100464.41;5051620;28;19929;-88
2023/11/16 08:38:25;;;;;;;;;;;;;;;3.67;100.00;100463.13;5008840;28;20360;-87
2023/11/16 08:40:54;;;;;;;;;;;;;;;3.70;100.00;100468.84;5034357;28;19943;-87
2023/11/16 08:43:25;;;;;;;;;;;;;;;3.66;100.00;100459.63;5029615;28;19933;-87
2023/11/16 08:45:55;;;;;;;;;;;;;;;3.70;100.00;100470.72;5030898;28;19924;-88
2023/11/16 08:48:34;;;;;;;;;;;;;;;3.66;100.00;100477.63;5036897;28;20573;-88
2023/11/16 08:51:05;;;;;;;;;;;;;;;3.64;100.00;100479.75;5033529;28;19932;-88
2023/11/16 08:53:39;;;;;;;;;;;;;;;3.67;100.00;100472.00;5032927;28;20687;-86
2023/11/16 08:56:14;;;;;;;;;;;;;;;3.64;100.00;100475.19;5032615;28;19932;-88
2023/11/16 08:58:47;;;;;;;;;;;;;;;3.67;100.00;100480.06;5029294;28;20006;-90
2023/11/16 09:01:17;;;;;;;;;;;;;;;3.66;100.00;100478.47;5028184;28;20502;-88
2023/11/16 09:03:48;;;;;;;;;;;;;;;3.68;100.00;100479.03;5033133;28;19932;-89
2023/11/16 09:06:16;;;;;;;;;;;;;;;3.70;100.00;100490.38;5050600;28;19924;-88
2023/11/16 09:08:45;;;;;;;;;;;;;;;3.78;100.00;100488.38;5035714;28;19932;-86
2023/11/16 09:11:22;;;;;;;;;;;;;;;3.74;100.00;100491.56;5035584;28;19971;-87
2023/11/16 09:13:51;;;;;;;;;;;;;;;3.78;100.00;100489.19;5034593;28;19932;-87
2023/11/16 09:16:21;;;;;;;;;;;;;;;3.74;100.00;100491.56;5033436;28;19924;-88
2023/11/16 09:18:50;;;;;;;;;;;;;;;3.80;100.00;100487.09;5061338;28;20445;-88
2023/11/16 09:21:19;;;;;;;;;;;;;;;3.75;100.00;100487.78;5047414;28;19933;-88
2023/11/16 09:23:52;;;;;;;;;;;;;;;3.74;100.00;100486.16;5028550;28;19932;-87
2023/11/16 09:26:23;;;;;;;;;;;;;;;3.78;100.00;100486.47;5029349;28;19959;-88
2023/11/16 09:28:53;;;;;;;;;;;;;;;3.87;100.00;100485.06;5045178;28;19933;-87
2023/11/16 09:31:26;;;;;;;;;;;;;;;3.97;100.00;100487.13;5050003;28;19933;-86
2023/11/16 09:33:56;;;;;;;;;;;;;;;3.97;100.00;100480.94;5033862;28;19933;-89
2023/11/16 09:36:26;;;;;;;;;;;;;;;3.95;100.00;100486.56;5035324;28;19925;-87
2023/11/16 09:38:56;;;;;;;;;;;;;;;3.99;100.00;100489.56;5011969;28;19932;-87
2023/11/16 09:41:25;;;;;;;;;;;;;;;3.97;100.00;100500.59;5032177;28;19936;-87
2023/11/16 09:44:06;;;;;;;;;;;;;;;3.92;100.00;100476.25;5056652;28;19999;-88
2023/11/16 09:46:39;;;;;;;;;;;;;;;4.02;100.00;100486.41;5053145;28;20645;-85
2023/11/16 09:49:13;;;;;;;;;;;;;;;3.95;100.00;100491.09;5051573;28;19939;-87
2023/11/16 09:51:41;;;;;;;;;;;;;;;3.91;100.00;100494.28;5039841;28;19939;-87
2023/11/16 09:54:20;;;;;;;;;;;;;;;3.99;100.00;100490.41;5032425;28;19939;-87
2023/11/16 09:56:54;;;;;;;;;;;;;;;3.97;100.00;100475.53;5033481;28;21750;-85
2023/11/16 09:59:34;;;;;;;;;;;;;;;4.07;100.00;100486.50;5047876;28;19939;-86
2023/11/16 10:02:09;;;;;;;;;;;;;;;4.02;100.00;100475.63;5030660;28;19932;-86
2023/11/16 10:04:41;;;;;;;;;;;;;;;4.05;100.00;100481.34;5035603;28;19932;-87
2023/11/16 10:07:12;;;;;;;;;;;;;;;4.04;100.00;100474.31;5053913;28;19931;-85
2023/11/16 10:09:40;;;;;;;;;;;;;;;4.05;100.00;100473.28;5037645;28;19955;-86
2023/11/16 10:12:14;;;;;;;;;;;;;;;4.09;100.00;100477.13;5034804;28;20296;-89
2023/11/16 10:14:51;;;;;;;;;;;;;;;4.06;100.00;100476.78;5039519;28;19935;-87
2023/11/16 10:17:25;;;;;;;;;;;;;;;4.11;100.00;100471.50;5034691;28;19936;-88
2023/11/16 10:19:58;;;;;;;;;;;;;;;4.24;100.00;100481.16;5051762;28;20512;-86
2023/11/16 10:22:27;;;;;;;;;;;;;;;4.28;100.00;100476.94;5054968;28;20300;-86
2023/11/16 10:24:58;;;;;;;;;;;;;;;4.27;100.00;100461.81;5040299;28;19944;-88
2023/11/16 10:27:32;;;;;;;;;;;;;;;4.24;100.00;100462.31;5038800;28;19932;-86
2023/11/16 10:30:04;;;;;;;;;;;;;;;4.25;100.00;100472.84;5055394;28;20003;-86
2023/11/16 10:32:33;;;;;;;;;;;;;;;4.25;100.00;100480.91;5031594;28;19933;-88
2023/11/16 10:35:02;;;;;;;;;;;;;;;4.25;100.00;100469.31;5037842;28;19958;-86
2023/11/16 10:37:31;;;;;;;;;;;;;;;4.37;100.00;100488.09;5037861;28;19933;-87
2023/11/16 10:39:59;;;;;;;;;;;;;;;4.39;100.00;100481.41;5012116;28;20794;-86
2023/11/16 10:42:28;;;;;;;;;;;;;;;4.32;100.00;100485.31;5034668;28;20639;-90
2023/11/16 10:44:59;;;;;;;;;;;;;;;4.39;100.00;100483.28;5037407;28;19932;-86
2023/11/16 10:47:28;;;;;;;;;;;;;;;4.44;100.00;100483.38;5036424;28;19944;-87
2023/11/16 10:49:58;;;;;;;;;;;;;;;4.39;100.00;100477.91;5039172;28;20584;-88
2023/11/16 10:52:26;;;;;;;;;;;;;;;4.33;100.00;100487.78;5036662;28;19939;-90
2023/11/16 10:55:01;;;;;;;;;;;;;;;4.42;100.00;100490.91;5035711;28;19944;-87
2023/11/16 10:57:36;;;;;;;;;;;;;;;4.39;100.00;100484.13;5038913;28;20478;-88
2023/11/16 11:00:10;;;;;;;;;;;;;;;4.42;100.00;100482.81;5039665;28;19932;-87
2023/11/16 11:02:45;;;;;;;;;;;;;;;4.37;100.00;100475.44;5045357;28;20812;-87
2023/11/16 11:05:17;;;;;;;;;;;;;;;4.37;100.00;100477.34;5058352;28;20369;-90
2023/11/16 11:07:48;;;;;;;;;;;;;;;4.46;100.00;100478.56;5040540;28;19932;-88
2023/11/16 11:10:23;;;;;;;;;;;;;;;4.43;100.00;100479.03;5037131;28;19933;-88
2023/11/16 11:12:51;;;;;;;;;;;;;;;4.43;100.00;100492.50;5055748;28;19932;-88
2023/11/16 11:15:25;;;;;;;;;;;;;;;4.45;100.00;100487.72;5059734;28;19933;-87
2023/11/16 11:18:00;;;;;;;;;;;;;;;4.48;100.00;100491.81;5039294;28;19932;-87
2023/11/16 11:20:32;;;;;;;;;;;;;;;4.52;100.00;100501.84;5058743;28;19939;-89
2023/11/16 11:23:06;;;;;;;;;;;;;;;4.47;100.00;100504.44;5051930;28;19939;-87
2023/11/16 11:25:36;;;;;;;;;;;;;;;4.50;100.00;100506.66;5040931;28;19932;-87
2023/11/16 11:28:09;;;;;;;;;;;;;;;4.43;100.00;100506.81;5057686;28;20300;-86
2023/11/16 11:30:48;;;;;;;;;;;;;;;4.44;100.00;100496.84;5037506;28;19929;-87
2023/11/16 11:33:20;;;;;;;;;;;;;;;4.50;100.00;100503.97;5038807;28;19929;-88
2023/11/16 11:35:52;;;;;;;;;;;;;;;4.49;100.00;100496.94;5032955;28;21147;-87
2023/11/16 11:38:27;;;;;;;;;;;;;;;4.58;100.00;100506.28;5030343;28;20628;-87
2023/11/16 11:40:59;;;;;;;;;;;;;;;4.60;100.00;100503.31;5035787;28;19939;-86
2023/11/16 11:43:32;;;;;;;;;;;;;;;4.48;100.00;100502.59;5035819;28;19932;-87
2023/11/16 11:46:00;;;;;;;;;;;;;;;4.62;100.00;100505.78;5029516;28;20881;-87
2023/11/16 11:48:34;;;;;;;;;;;;;;;4.54;100.00;100499.72;5055284;28;20308;-88
2023/11/16 11:51:08;;;;;;;;;;;;;;;4.53;100.00;100492.69;5036316;28;19932;-86
2023/11/16 11:53:36;;;;;;;;;;;;;;;4.60;100.00;100500.63;5031694;28;20336;-86
2023/11/16 11:56:06;;;;;;;;;;;;;;;4.75;100.00;100500.03;5053282;28;20017;-85
2023/11/16 11:58:41;;;;;;;;;;;;;;;4.63;100.00;100497.44;5036243;28;19944;-85
2023/11/16 12:01:11;;;;;;;;;;;;;;;4.76;100.00;100494.44;5035835;28;19933;-88
2023/11/16 12:03:50;;;;;;;;;;;;;;;4.65;100.00;100505.28;5038126;28;19955;-90
2023/11/16 12:06:20;;;;;;;;;;;;;;;4.76;100.00;100502.50;5033801;28;19933;-89
2023/11/16 12:08:49;;;;;;;;;;;;;;;4.68;100.00;100499.38;5036678;28;20436;-88
2023/11/16 12:11:26;;;;;;;;;;;;;;;4.63;100.00;100497.44;5038705;28;20405;-90
2023/11/16 12:13:54;;;;;;;;;;;;;;;4.70;100.00;100491.88;5036218;28;19940;-89
2023/11/16 12:16:23;;;;;;;;;;;;;;;4.66;100.00;100485.34;5030329;28;19933;-88
2023/11/16 12:18:54;;;;;;;;;;;;;;;4.55;100.00;100484.38;5033863;28;19929;-88
2023/11/16 12:21:23;;;;;;;;;;;;;;;4.65;100.00;100484.53;5034711;28;19933;-88
2023/11/16 12:23:53;;;;;;;;;;;;;;;4.73;100.00;100486.00;5030321;28;20402;-89
2023/11/16 12:26:24;;;;;;;;;;;;;;;4.78;100.00;100478.00;5030235;28;20564;-88
2023/11/16 12:28:58;;;;;;;;;;;;;;;4.67;100.00;100478.88;5032345;28;19932;-87
2023/11/16 12:31:38;;;;;;;;;;;;;;;4.63;100.00;100475.03;5034264;28;19924;-88
2023/11/16 12:34:07;;;;;;;;;;;;;;;4.59;100.00;100474.72;5033613;28;19955;-88
2023/11/16 12:36:44;;;;;;;;;;;;;;;4.61;100.00;100475.28;5032351;28;19940;-87
2023/11/16 12:39:17;;;;;;;;;;;;;;;4.67;100.00;100476.19;5032926;28;19932;-88
2023/11/16 12:41:50;;;;;;;;;;;;;;;4.62;100.00;100460.75;5042478;28;19956;-88
2023/11/16 12:44:18;;;;;;;;;;;;;;;4.67;100.00;100455.47;5049560;28;19924;-88
2023/11/16 12:46:46;;;;;;;;;;;;;;;4.66;100.00;100453.00;5050178;28;19933;-85
2023/11/16 12:49:16;;;;;;;;;;;;;;;4.69;100.00;100453.31;5031659;28;19932;-86
2023/11/16 12:51:44;;;;;;;;;;;;;;;4.75;100.00;100446.97;5034580;28;20312;-88
2023/11/16 12:54:16;;;;;;;;;;;;;;;4.79;100.00;100446.47;5033217;28;19955;-85
2023/11/16 12:56:45;;;;;;;;;;;;;;;4.71;100.00;100444.97;5031234;28;19924;-86
2023/11/16 12:59:18;;;;;;;;;;;;;;;4.89;100.00;100446.63;5032052;28;19943;-85
2023/11/16 13:01:46;;;;;;;;;;;;;;;4.73;100.00;100445.56;5030693;28;20648;-90
2023/11/16 13:04:16;;;;;;;;;;;;;;;4.74;100.00;100442.63;5035717;28;19943;-86